createdAt,value
2022-12-25T00:00:20.210Z,100997.50
2022-12-25T00:02:52.680Z,100991.56
2022-12-25T00:05:22.402Z,101023.59
2022-12-25T00:07:54.657Z,101023.13
2022-12-25T00:10:24.375Z,101022.28
2022-12-25T00:12:54.772Z,101014.69
2022-12-25T00:15:24.491Z,100983.66
2022-12-25T00:17:54.175Z,101027.53
2022-12-25T00:20:23.859Z,101038.97
2022-12-25T00:22:56.108Z,101045.09
2022-12-25T00:25:25.780Z,101053.31
2022-12-25T00:27:55.430Z,101059.00
2022-12-25T00:30:25.137Z,101052.25
2022-12-25T00:32:55.150Z,101050.31
2022-12-25T00:35:24.908Z,101068.97
2022-12-25T00:37:57.147Z,101055.22
2022-12-25T00:40:26.812Z,101076.78
2022-12-25T00:42:53.874Z,101061.00
2022-12-25T00:45:23.695Z,101066.63
2022-12-25T00:47:53.430Z,101070.13
2022-12-25T00:50:23.137Z,101059.84
2022-12-25T00:52:52.828Z,101054.78
2022-12-25T00:55:25.126Z,101045.06
2022-12-25T00:57:54.758Z,101065.47
2022-12-25T01:00:26.461Z,101057.84
2022-12-25T01:02:56.198Z,101038.69
2022-12-25T01:05:26.033Z,101055.31
2022-12-25T01:07:55.663Z,101063.53
2022-12-25T01:10:25.416Z,101027.47
2022-12-25T01:12:55.433Z,101053.06
2022-12-25T01:15:25.094Z,101053.88
2022-12-25T01:17:54.815Z,101057.22
2022-12-25T01:20:24.722Z,101034.69
2022-12-25T01:22:54.473Z,101025.41
2022-12-25T01:25:26.756Z,101038.41
2022-12-25T01:27:56.415Z,101061.94
2022-12-25T01:30:26.077Z,101015.28
2022-12-25T01:32:55.730Z,101073.56
2022-12-25T01:35:26.315Z,101043.47
2022-12-25T01:37:55.983Z,101030.75
2022-12-25T01:40:28.261Z,101062.41
2022-12-25T01:42:57.936Z,101069.75
2022-12-25T01:45:39.220Z,101045.59
2022-12-25T01:48:20.754Z,101033.63
2022-12-25T01:50:56.391Z,101062.31
2022-12-25T01:53:27.459Z,101078.84
2022-12-25T01:56:04.136Z,101080.81
2022-12-25T01:58:34.612Z,101077.84
2022-12-25T02:01:08.268Z,101088.13
2022-12-25T02:03:40.038Z,101064.09
2022-12-25T02:06:10.981Z,101077.66
2022-12-25T02:08:40.817Z,101064.72
2022-12-25T02:11:34.523Z,101057.97
2022-12-25T02:14:04.527Z,101068.00
2022-12-25T02:16:58.360Z,101079.09
2022-12-25T02:19:47.234Z,101071.34
2022-12-25T02:22:29.125Z,101072.81
2022-12-25T02:25:13.674Z,101070.34
2022-12-25T02:28:12.920Z,101069.34
2022-12-25T02:30:46.981Z,101080.41
2022-12-25T02:33:32.655Z,101069.34
2022-12-25T02:36:10.012Z,101066.00
2022-12-25T02:39:03.994Z,101044.72
2022-12-25T02:41:37.563Z,101038.78
2022-12-25T02:44:28.241Z,101044.66
2022-12-25T02:47:10.961Z,101038.19
2022-12-25T02:50:06.304Z,101070.38
2022-12-25T02:52:48.584Z,101065.97
2022-12-25T02:55:35.421Z,101062.84
2022-12-25T02:58:33.268Z,101060.41
2022-12-25T03:01:21.220Z,101035.47
2022-12-25T03:04:05.606Z,101033.00
2022-12-25T03:06:47.110Z,101006.22
2022-12-25T03:09:43.338Z,101044.50
2022-12-25T03:12:20.880Z,101036.47
2022-12-25T03:15:03.474Z,101053.66
2022-12-25T03:17:36.554Z,101043.53
2022-12-25T03:20:20.201Z,101023.66
2022-12-25T03:23:03.191Z,100997.44
2022-12-25T03:25:45.548Z,101059.78
2022-12-25T03:28:15.229Z,101053.13
2022-12-25T03:31:04.556Z,101049.09
2022-12-25T03:34:11.718Z,101043.09
2022-12-25T03:36:50.285Z,101047.38
2022-12-25T03:39:56.758Z,101051.75
2022-12-25T03:42:47.280Z,101044.66
2022-12-25T03:45:36.790Z,101016.66
2022-12-25T03:48:35.831Z,100982.03
2022-12-25T03:51:27.966Z,101044.75
2022-12-25T03:54:14.738Z,101046.66
2022-12-25T03:56:58.780Z,101036.81
2022-12-25T03:59:40.983Z,101050.41
2022-12-25T04:02:24.152Z,101045.56
2022-12-25T04:05:06.395Z,101040.78
2022-12-25T04:07:51.142Z,101056.03
2022-12-25T04:10:33.366Z,101022.50
2022-12-25T04:13:15.480Z,101033.13
2022-12-25T04:15:57.734Z,101047.06
2022-12-25T04:18:40.146Z,101037.66
2022-12-25T04:21:22.551Z,101037.06
2022-12-25T04:24:07.231Z,101031.34
2022-12-25T04:26:49.406Z,101026.13
2022-12-25T04:29:31.564Z,101013.41
2022-12-25T04:32:13.691Z,101030.88
2022-12-25T04:34:55.815Z,101033.25
2022-12-25T04:37:25.535Z,101020.00
2022-12-25T04:39:57.831Z,101018.66
2022-12-25T04:42:27.528Z,101012.00
2022-12-25T04:44:57.195Z,101019.03
2022-12-25T04:47:26.848Z,101017.41
2022-12-25T04:49:56.476Z,101028.50
2022-12-25T04:52:26.227Z,101022.38
2022-12-25T04:54:58.479Z,101010.81
2022-12-25T04:57:28.148Z,100984.50
2022-12-25T04:59:57.830Z,100994.00
2022-12-25T05:02:27.654Z,100948.84
2022-12-25T05:04:57.504Z,101005.88
2022-12-25T05:07:27.206Z,101003.97
2022-12-25T05:09:59.540Z,101002.66
2022-12-25T05:12:29.206Z,101000.13
2022-12-25T05:14:58.881Z,101008.66
2022-12-25T05:17:28.555Z,100998.53
2022-12-25T05:19:58.279Z,101002.66
2022-12-25T05:22:27.965Z,101000.78
2022-12-25T05:25:00.236Z,101001.94
2022-12-25T05:27:29.957Z,100991.66
2022-12-25T05:29:59.717Z,100996.97
2022-12-25T05:32:29.432Z,100979.03
2022-12-25T05:35:00.307Z,100993.03
2022-12-25T05:37:30.032Z,100993.63
2022-12-25T05:40:02.359Z,100962.69
2022-12-25T05:42:32.103Z,100957.41
2022-12-25T05:45:01.815Z,100917.69
2022-12-25T05:47:31.538Z,100990.50
2022-12-25T05:50:01.224Z,100981.28
2022-12-25T05:52:33.977Z,100982.91
2022-12-25T05:55:06.729Z,100988.00
2022-12-25T05:57:36.646Z,100951.88
2022-12-25T06:00:06.918Z,100969.25
2022-12-25T06:02:42.284Z,100945.25
2022-12-25T06:05:12.915Z,100973.03
2022-12-25T06:07:42.633Z,100966.31
2022-12-25T06:10:15.228Z,100978.44
2022-12-25T06:12:44.920Z,100915.91
2022-12-25T06:15:14.645Z,100966.06
2022-12-25T06:17:44.553Z,100950.97
2022-12-25T06:20:14.351Z,100971.59
2022-12-25T06:22:44.030Z,100951.19
2022-12-25T06:25:16.899Z,100938.41
2022-12-25T06:27:47.169Z,100955.69
2022-12-25T06:30:17.512Z,100959.03
2022-12-25T06:32:47.216Z,100959.84
2022-12-25T06:35:17.116Z,100959.13
2022-12-25T06:37:46.812Z,100951.47
2022-12-25T06:40:19.633Z,100938.94
2022-12-25T06:42:49.261Z,100937.09
2022-12-25T06:45:19.108Z,100937.47
2022-12-25T06:47:48.758Z,100934.59
2022-12-25T06:50:18.565Z,100938.22
2022-12-25T06:52:48.205Z,100919.91
2022-12-25T06:55:20.466Z,100949.19
2022-12-25T06:57:50.155Z,100943.50
2022-12-25T07:00:20.184Z,100951.47
2022-12-25T07:02:52.336Z,100951.50
2022-12-25T07:05:22.094Z,100940.66
2022-12-25T07:07:51.757Z,100949.09
2022-12-25T07:10:24.073Z,100923.75
2022-12-25T07:12:53.744Z,100956.09
2022-12-25T07:15:23.386Z,100953.16
2022-12-25T07:17:53.048Z,100968.13
2022-12-25T07:20:22.715Z,100915.72
2022-12-25T07:22:52.362Z,100948.19
2022-12-25T07:25:24.630Z,100944.97
2022-12-25T07:27:54.275Z,100935.19
2022-12-25T07:30:24.010Z,100949.69
2022-12-25T07:32:53.809Z,100936.63
2022-12-25T07:35:23.504Z,100906.81
2022-12-25T07:37:53.179Z,100934.22
2022-12-25T07:40:25.420Z,100927.63
2022-12-25T07:42:55.078Z,100926.16
2022-12-25T07:45:24.843Z,100919.38
2022-12-25T07:47:55.245Z,100898.16
2022-12-25T07:50:25.137Z,100908.25
2022-12-25T07:52:54.811Z,100841.47
2022-12-25T07:55:27.098Z,100901.63
2022-12-25T07:57:57.021Z,100885.53
2022-12-25T08:00:32.772Z,100902.03
2022-12-25T08:03:04.642Z,100907.22
2022-12-25T08:05:38.543Z,100916.50
2022-12-25T08:08:08.823Z,100918.75
2022-12-25T08:10:41.225Z,100923.84
2022-12-25T08:13:14.406Z,100926.22
2022-12-25T08:15:45.548Z,100864.16
2022-12-25T08:18:18.476Z,100900.63
2022-12-25T08:20:49.173Z,100920.53
2022-12-25T08:23:22.607Z,100923.78
2022-12-25T08:26:00.358Z,100888.53
2022-12-25T08:28:36.991Z,100923.06
2022-12-25T08:31:13.994Z,100928.22
2022-12-25T08:33:46.322Z,100929.69
2022-12-25T08:36:19.977Z,100936.41
2022-12-25T08:38:54.559Z,100930.41
2022-12-25T08:41:36.496Z,100929.25
2022-12-25T08:44:09.741Z,100905.31
2022-12-25T08:46:39.975Z,100937.03
2022-12-25T08:49:09.870Z,100924.06
2022-12-25T08:51:41.583Z,100936.41
2022-12-25T08:54:11.774Z,100883.22
2022-12-25T08:56:44.065Z,100915.44
2022-12-25T08:59:17.553Z,100913.16
2022-12-25T09:01:47.355Z,100908.19
2022-12-25T09:04:18.119Z,100855.84
2022-12-25T09:06:50.343Z,100708.25
2022-12-25T09:09:20.311Z,100889.66
2022-12-25T09:11:52.627Z,100877.22
2022-12-25T09:14:22.476Z,100919.78
2022-12-25T09:16:58.386Z,100943.09
2022-12-25T09:19:31.567Z,100936.59
2022-12-25T09:22:01.347Z,100941.19
2022-12-25T09:24:31.073Z,100886.09
2022-12-25T09:27:03.459Z,100920.75
2022-12-25T09:29:33.274Z,100937.47
2022-12-25T09:32:04.953Z,100905.13
2022-12-25T09:34:38.684Z,100871.03
2022-12-25T09:37:09.469Z,100917.75
2022-12-25T09:39:43.978Z,100943.19
2022-12-25T09:42:24.696Z,100945.13
2022-12-25T09:44:58.110Z,100928.72
2022-12-25T09:47:30.282Z,100937.56
2022-12-25T09:50:07.023Z,100891.47
2022-12-25T09:52:42.580Z,100896.47
2022-12-25T09:55:20.450Z,100887.34
2022-12-25T09:57:56.282Z,100827.28
2022-12-25T10:00:31.549Z,100839.81
2022-12-25T10:03:35.893Z,100830.38
2022-12-25T10:06:20.862Z,100856.47
2022-12-25T10:09:11.030Z,100793.56
2022-12-25T10:11:58.335Z,100818.84
2022-12-25T10:14:44.869Z,100838.81
2022-12-25T10:17:40.788Z,100805.47
2022-12-25T10:20:20.876Z,100702.19
2022-12-25T10:22:55.611Z,100839.78
2022-12-25T10:25:27.673Z,100867.13
2022-12-25T10:28:02.468Z,100835.19
2022-12-25T10:30:34.857Z,100843.69
2022-12-25T10:33:07.534Z,100861.34
2022-12-25T10:35:41.579Z,100821.72
2022-12-25T10:38:16.228Z,100853.50
2022-12-25T10:40:57.610Z,100856.53
2022-12-25T10:43:33.286Z,100848.88
2022-12-25T10:46:13.484Z,100879.69
2022-12-25T10:48:46.569Z,100836.91
2022-12-25T10:51:16.548Z,100872.00
2022-12-25T10:53:48.372Z,100867.59
2022-12-25T10:56:20.887Z,100879.59
2022-12-25T10:58:51.720Z,100872.97
2022-12-25T11:01:30.490Z,100855.94
2022-12-25T11:04:01.659Z,100862.28
2022-12-25T11:06:35.200Z,100851.19
2022-12-25T11:09:06.609Z,100850.44
2022-12-25T11:11:38.254Z,100819.47
2022-12-25T11:14:22.778Z,100802.31
2022-12-25T11:16:57.211Z,100819.56
2022-12-25T11:19:31.789Z,100833.56
2022-12-25T11:22:05.234Z,100813.56
2022-12-25T11:24:36.615Z,100827.66
2022-12-25T11:27:08.875Z,100815.66
2022-12-25T11:29:44.507Z,100837.25
2022-12-25T11:32:24.012Z,100822.91
2022-12-25T11:34:56.173Z,100792.94
2022-12-25T11:37:33.443Z,100822.44
2022-12-25T11:40:03.370Z,100793.22
2022-12-25T11:42:37.577Z,100802.91
2022-12-25T11:45:16.099Z,100800.31
2022-12-25T11:47:53.528Z,100630.00
2022-12-25T11:50:36.187Z,100786.09
2022-12-25T11:53:09.473Z,100783.66
2022-12-25T11:55:44.368Z,100734.63
2022-12-25T11:58:20.965Z,100761.47
2022-12-25T12:00:54.619Z,100770.94
2022-12-25T12:03:31.059Z,100758.13
2022-12-25T12:06:07.658Z,100743.72
2022-12-25T12:08:39.062Z,100744.63
2022-12-25T12:11:20.590Z,100716.88
2022-12-25T12:14:03.407Z,100742.41
2022-12-25T12:16:33.501Z,100664.50
2022-12-25T12:19:26.137Z,100743.00
2022-12-25T12:21:59.490Z,100693.97
2022-12-25T12:24:36.872Z,100706.34
2022-12-25T12:27:09.183Z,100727.84
2022-12-25T12:29:45.258Z,100731.31
2022-12-25T12:32:32.091Z,100690.81
2022-12-25T12:35:10.950Z,100677.00
2022-12-25T12:37:43.976Z,100711.47
2022-12-25T12:40:28.444Z,100708.41
2022-12-25T12:42:59.428Z,100687.03
2022-12-25T12:45:35.968Z,100662.28
2022-12-25T12:48:17.604Z,100681.34
2022-12-25T12:50:49.967Z,100674.56
2022-12-25T12:53:31.998Z,100667.59
2022-12-25T12:56:17.195Z,100674.56
2022-12-25T12:58:51.258Z,100676.44
2022-12-25T13:01:39.586Z,100613.75
2022-12-25T13:04:44.749Z,100676.50
2022-12-25T13:07:33.709Z,100674.97
2022-12-25T13:10:25.359Z,100643.31
2022-12-25T13:13:02.098Z,100609.94
2022-12-25T13:15:37.552Z,100628.03
2022-12-25T13:18:12.446Z,100642.53
2022-12-25T13:20:51.694Z,100640.91
2022-12-25T13:23:32.428Z,100652.06
2022-12-25T13:26:05.410Z,100628.88
2022-12-25T13:28:37.180Z,100629.84
2022-12-25T13:31:14.194Z,100599.84
2022-12-25T13:33:49.164Z,100597.56
2022-12-25T13:36:20.052Z,100573.31
2022-12-25T13:38:56.878Z,100589.81
2022-12-25T13:41:42.201Z,100592.03
2022-12-25T13:44:21.144Z,100571.56
2022-12-25T13:46:51.032Z,100588.56
2022-12-25T13:49:24.934Z,100586.53
2022-12-25T13:51:54.668Z,100558.47
2022-12-25T13:54:27.501Z,100572.81
2022-12-25T13:57:00.643Z,100532.91
2022-12-25T13:59:33.579Z,100536.16
2022-12-25T14:02:06.444Z,100548.78
2022-12-25T14:04:46.772Z,100560.59
2022-12-25T14:07:24.218Z,100522.63
2022-12-25T14:09:59.928Z,100559.50
2022-12-25T14:12:33.306Z,100522.31
2022-12-25T14:15:03.592Z,100545.22
2022-12-25T14:17:33.476Z,100557.34
2022-12-25T14:20:08.609Z,100548.84
2022-12-25T14:22:41.497Z,100549.81
2022-12-25T14:25:21.127Z,100512.91
2022-12-25T14:27:53.535Z,100540.75
2022-12-25T14:30:26.420Z,100530.53
2022-12-25T14:32:58.038Z,100522.56
2022-12-25T14:35:28.149Z,100540.38
2022-12-25T14:38:01.199Z,100531.00
2022-12-25T14:40:36.761Z,100529.09
2022-12-25T14:43:08.525Z,100460.41
2022-12-25T14:45:41.170Z,100528.00
2022-12-25T14:48:24.792Z,100520.94
2022-12-25T14:51:03.423Z,100528.47
2022-12-25T14:53:39.316Z,100520.28
2022-12-25T14:56:12.451Z,100514.28
2022-12-25T14:58:46.050Z,100500.97
2022-12-25T15:01:24.547Z,100448.97
2022-12-25T15:04:05.652Z,100496.13
2022-12-25T15:06:36.476Z,100458.34
2022-12-25T15:09:09.242Z,100505.81
2022-12-25T15:11:50.885Z,100467.94
2022-12-25T15:14:20.671Z,100492.81
2022-12-25T15:16:53.812Z,100473.16
2022-12-25T15:19:34.867Z,100481.88
2022-12-25T15:22:09.383Z,100498.22
2022-12-25T15:24:42.679Z,100496.53
2022-12-25T15:27:21.447Z,100499.25
2022-12-25T15:32:42.086Z,100498.53
2022-12-25T15:35:17.747Z,100477.28
2022-12-25T15:37:47.714Z,100465.34
2022-12-25T15:40:21.419Z,100425.91
2022-12-25T15:42:56.664Z,100457.88
2022-12-25T15:45:30.435Z,100462.13
2022-12-25T15:48:02.175Z,100447.69
2022-12-25T15:50:36.765Z,100468.16
2022-12-25T15:53:08.596Z,100451.94
2022-12-25T15:55:38.425Z,100433.81
2022-12-25T15:58:15.279Z,100446.72
2022-12-25T16:00:46.086Z,100442.44
2022-12-25T16:03:17.962Z,100419.38
2022-12-25T16:05:47.878Z,100445.00
2022-12-25T16:08:18.660Z,100425.34
2022-12-25T16:10:48.543Z,100360.09
2022-12-25T16:13:25.175Z,100438.31
2022-12-25T16:15:55.953Z,100390.22
2022-12-25T16:18:28.281Z,100416.78
2022-12-25T16:21:02.472Z,100444.38
2022-12-25T16:23:36.711Z,100441.75
2022-12-25T16:26:08.507Z,100432.28
2022-12-25T16:28:41.868Z,100362.66
2022-12-25T16:31:11.712Z,100395.34
2022-12-25T16:33:43.773Z,100432.31
2022-12-25T16:36:14.493Z,100415.25
2022-12-25T16:38:46.189Z,100412.81
2022-12-25T16:41:19.658Z,100406.16
2022-12-25T16:43:54.085Z,100406.81
2022-12-25T16:46:25.168Z,100405.00
2022-12-25T16:48:54.971Z,100381.81
2022-12-25T16:51:26.759Z,100363.88
2022-12-25T16:53:57.560Z,100368.88
2022-12-25T16:56:30.043Z,100386.06
2022-12-25T16:59:04.398Z,100365.28
2022-12-25T17:01:34.275Z,100385.97
2022-12-25T17:04:04.135Z,100380.59
2022-12-25T17:06:35.467Z,100377.97
2022-12-25T17:09:07.598Z,100382.47
2022-12-25T17:11:39.381Z,100371.38
2022-12-25T17:14:13.490Z,100373.09
2022-12-25T17:16:43.232Z,100366.31
2022-12-25T17:19:20.809Z,100368.81
2022-12-25T17:21:54.768Z,100368.88
2022-12-25T17:24:25.161Z,100374.03
2022-12-25T17:26:55.918Z,100361.38
2022-12-25T17:29:29.205Z,100348.53
2022-12-25T17:32:00.080Z,100371.53
2022-12-25T17:34:29.940Z,100313.31
2022-12-25T17:36:59.646Z,100339.13
2022-12-25T17:39:30.626Z,100346.19
2022-12-25T17:42:01.575Z,100338.41
2022-12-25T17:44:34.927Z,100351.19
2022-12-25T17:47:05.771Z,100322.91
2022-12-25T17:49:35.990Z,100342.56
2022-12-25T17:52:07.888Z,100343.47
2022-12-25T17:54:39.266Z,100336.69
2022-12-25T17:57:09.048Z,100305.00
2022-12-25T17:59:42.457Z,100326.53
2022-12-25T18:02:13.950Z,100300.03
2022-12-25T18:04:43.711Z,100294.94
2022-12-25T18:07:13.403Z,100316.38
2022-12-25T18:09:44.354Z,100319.16
2022-12-25T18:12:14.003Z,100314.00
2022-12-25T18:14:47.347Z,100304.72
2022-12-25T18:17:17.159Z,100297.34
2022-12-25T18:19:47.843Z,100299.78
2022-12-25T18:22:19.084Z,100316.03
2022-12-25T18:24:49.836Z,100301.47
2022-12-25T18:27:20.559Z,100279.06
2022-12-25T18:29:53.989Z,100303.81
2022-12-25T18:32:27.956Z,100316.84
2022-12-25T18:34:58.323Z,100289.44
2022-12-25T18:37:31.902Z,100317.69
2022-12-25T18:40:04.885Z,100310.06
2022-12-25T18:42:46.484Z,100296.38
2022-12-25T18:45:18.828Z,100311.91
2022-12-25T18:47:48.980Z,100284.38
2022-12-25T18:50:20.209Z,100319.63
2022-12-25T18:52:51.930Z,100322.22
2022-12-25T18:55:23.020Z,100315.41
2022-12-25T18:57:52.792Z,100306.78
2022-12-25T19:00:28.160Z,100272.59
2022-12-25T19:02:59.895Z,100234.81
2022-12-25T19:05:30.728Z,100227.22
2022-12-25T19:08:00.466Z,100241.81
2022-12-25T19:10:31.196Z,100275.19
2022-12-25T19:13:01.986Z,100258.09
2022-12-25T19:15:35.720Z,100288.03
2022-12-25T19:18:06.804Z,100280.28
2022-12-25T19:20:36.674Z,100276.00
2022-12-25T19:23:08.521Z,100276.78
2022-12-25T19:25:42.217Z,100258.84
2022-12-25T19:28:13.131Z,100277.72
2022-12-25T19:30:46.777Z,100269.25
2022-12-25T19:33:18.132Z,100270.13
2022-12-25T19:35:49.159Z,100270.19
2022-12-25T19:38:20.263Z,100259.94
2022-12-25T19:41:02.704Z,100252.22
2022-12-25T19:43:36.074Z,100229.97
2022-12-25T19:46:10.939Z,100274.56
2022-12-25T19:48:40.719Z,100216.31
2022-12-25T19:51:20.214Z,100278.78
2022-12-25T19:53:50.532Z,100213.53
2022-12-25T19:56:21.974Z,100270.97
2022-12-25T19:58:52.803Z,100265.88
2022-12-25T20:01:28.090Z,100236.09
2022-12-25T20:03:59.936Z,100237.22
2022-12-25T20:06:32.757Z,100261.81
2022-12-25T20:09:06.347Z,100259.97
2022-12-25T20:11:38.491Z,100234.97
2022-12-25T20:14:10.751Z,100255.06
2022-12-25T20:16:44.356Z,100252.41
2022-12-25T20:19:15.297Z,100272.84
2022-12-25T20:21:46.111Z,100218.84
2022-12-25T20:24:15.861Z,100241.19
2022-12-25T20:26:47.965Z,100265.25
2022-12-25T20:29:19.416Z,100266.91
2022-12-25T20:31:51.720Z,100209.53
2022-12-25T20:34:21.456Z,100272.91
2022-12-25T20:36:51.587Z,100268.78
2022-12-25T20:39:21.329Z,100285.84
2022-12-25T20:41:52.020Z,100251.63
2022-12-25T20:44:22.839Z,100260.97
2022-12-25T20:46:59.408Z,100277.34
2022-12-25T20:49:32.506Z,100272.16
2022-12-25T20:52:05.750Z,100266.97
2022-12-25T20:54:36.154Z,100298.75
2022-12-25T20:57:06.090Z,100277.34
2022-12-25T20:59:37.975Z,100308.28
2022-12-25T21:02:34.905Z,100246.56
2022-12-25T21:05:04.023Z,100276.50
2022-12-25T21:07:35.842Z,100298.13
2022-12-25T21:10:08.119Z,100286.16
2022-12-25T21:12:37.808Z,100269.66
2022-12-25T21:15:14.960Z,100310.84
2022-12-25T21:17:47.685Z,100286.94
2022-12-25T21:20:17.594Z,100313.41
2022-12-25T21:22:47.354Z,100290.41
2022-12-25T21:25:18.126Z,100301.56
2022-12-25T21:27:48.859Z,100244.09
2022-12-25T21:30:19.873Z,100313.47
2022-12-25T21:33:05.690Z,100296.34
2022-12-25T21:35:38.861Z,100302.22
2022-12-25T21:38:09.718Z,100272.97
2022-12-25T21:40:40.739Z,100316.69
2022-12-25T21:43:10.473Z,100308.25
2022-12-25T21:45:40.217Z,100281.66
2022-12-25T21:48:13.683Z,100286.06
2022-12-25T21:50:56.955Z,100272.06
2022-12-25T21:53:27.659Z,100300.53
2022-12-25T21:56:02.517Z,100304.84
2022-12-25T21:58:33.241Z,100275.59
2022-12-25T22:01:05.121Z,100294.41
2022-12-25T22:03:38.757Z,100302.22
2022-12-25T22:06:21.961Z,100283.34
2022-12-25T22:08:51.769Z,100288.38
2022-12-25T22:11:35.233Z,100263.56
2022-12-25T22:14:17.445Z,100275.44
2022-12-25T22:16:59.643Z,100293.50
2022-12-25T22:19:45.437Z,100258.28
2022-12-25T22:22:15.656Z,100287.47
2022-12-25T22:24:45.894Z,100330.38
2022-12-25T22:27:16.997Z,100330.47
2022-12-25T22:29:47.066Z,100327.03
2022-12-25T22:32:17.893Z,100292.00
2022-12-25T22:34:50.235Z,100304.88
2022-12-25T22:37:21.860Z,100328.06
2022-12-25T22:39:51.530Z,100339.19
2022-12-25T22:42:21.618Z,100350.41
2022-12-25T22:44:52.411Z,100340.97
2022-12-25T22:47:22.264Z,100321.16
2022-12-25T22:49:54.751Z,100324.72
2022-12-25T22:52:25.545Z,100348.72
2022-12-25T22:54:56.208Z,100340.91
2022-12-25T22:57:27.020Z,100306.75
2022-12-25T22:59:56.834Z,100255.25
2022-12-25T23:02:26.854Z,100344.44
2022-12-25T23:05:00.531Z,100342.88
2022-12-25T23:07:31.280Z,100276.09
2022-12-25T23:10:00.940Z,100305.16
2022-12-25T23:12:43.116Z,100293.97
2022-12-25T23:15:13.393Z,100335.09
2022-12-25T23:17:55.605Z,100296.50
2022-12-25T23:20:40.703Z,100333.34
2022-12-25T23:23:28.305Z,100316.94
2022-12-25T23:26:13.189Z,100340.06
2022-12-25T23:28:57.163Z,100325.50
2022-12-25T23:31:31.134Z,100328.00
2022-12-25T23:34:02.277Z,100343.34
2022-12-25T23:36:36.100Z,100346.03
2022-12-25T23:39:10.083Z,100352.00
2022-12-25T23:41:42.246Z,100346.09
2022-12-25T23:44:13.740Z,100342.59
2022-12-25T23:46:53.321Z,100334.09
2022-12-25T23:49:24.553Z,100298.03
2022-12-25T23:51:57.884Z,100333.22
2022-12-25T23:54:30.788Z,100331.47
2022-12-25T23:57:02.688Z,100352.81
2022-12-25T23:59:33.558Z,100336.59
